Time;durP1;ratioP1;P1;durP2;ratioP2;P2;SDS_P1;SDS_P2;PMS_P1;PMS_P2;Temp;Humidity;BMP_temperature;BMP_pressure;BME280_temperature;BME280_humidity;BME280_pressure;Samples;Min_cycle;Max_cycle;Signal;HPM_P1;HPM_P2
2023/02/02 00:00:24;;;;;;;1.02;0.45;;;;;;;;;;4613908;27;20047;-63
2023/02/02 00:02:34;;;;;;;0.80;0.50;;;;;;;;;;4609587;27;20049;-64
2023/02/02 00:04:45;;;;;;;0.90;0.60;;;;;;;;;;4610717;27;20027;-64
2023/02/02 00:06:58;;;;;;;1.00;0.50;;;;;;;;;;4612441;27;20447;-63
2023/02/02 00:09:09;;;;;;;1.00;0.50;;;;;;;;;;4611473;27;20066;-63
2023/02/02 00:11:20;;;;;;;0.98;0.50;;;;;;;;;;4611675;27;20067;-64
2023/02/02 00:13:31;;;;;;;1.05;0.60;;;;;;;;;;4611488;27;20134;-64
2023/02/02 00:15:41;;;;;;;0.63;0.40;;;;;;;;;;4612363;27;20107;-63
2023/02/02 00:17:51;;;;;;;0.57;0.43;;;;;;;;;;4610015;27;20031;-64
2023/02/02 00:20:01;;;;;;;0.75;0.50;;;;;;;;;;4613865;27;20038;-64
2023/02/02 00:22:12;;;;;;;1.23;0.50;;;;;;;;;;4611372;27;20066;-63
2023/02/02 00:24:22;;;;;;;1.45;0.50;;;;;;;;;;4613019;27;20111;-63
2023/02/02 00:26:33;;;;;;;0.47;0.30;;;;;;;;;;4612485;27;20047;-64
2023/02/02 00:28:43;;;;;;;1.02;0.50;;;;;;;;;;4610654;27;20039;-64
2023/02/02 00:30:53;;;;;;;1.15;0.50;;;;;;;;;;4613038;27;20043;-63
2023/02/02 00:33:03;;;;;;;1.15;0.60;;;;;;;;;;4612232;27;20035;-63
2023/02/02 00:35:14;;;;;;;0.80;0.50;;;;;;;;;;4612686;27;20066;-64
2023/02/02 00:37:24;;;;;;;0.68;0.30;;;;;;;;;;4611392;27;20030;-64
2023/02/02 00:39:35;;;;;;;1.55;0.40;;;;;;;;;;4612280;27;20035;-64
2023/02/02 00:41:45;;;;;;;0.70;0.40;;;;;;;;;;4612555;27;20051;-63
2023/02/02 00:46:39;;;;;;;0.70;0.50;;;;;;;;;;4587342;27;20051;-64
2023/02/02 00:48:50;;;;;;;0.93;0.40;;;;;;;;;;4613028;27;20027;-64
2023/02/02 00:51:01;;;;;;;0.65;0.50;;;;;;;;;;4609888;27;20108;-63
2023/02/02 00:53:12;;;;;;;1.77;0.50;;;;;;;;;;4593563;27;20044;-64
2023/02/02 00:55:24;;;;;;;1.05;0.50;;;;;;;;;;4611168;27;20035;-64
2023/02/02 00:57:34;;;;;;;1.10;0.50;;;;;;;;;;4600265;27;20048;-64
2023/02/02 00:59:45;;;;;;;1.45;0.30;;;;;;;;;;4613569;27;20912;-63
2023/02/02 01:01:55;;;;;;;0.57;0.50;;;;;;;;;;4613353;27;20547;-63
2023/02/02 01:04:06;;;;;;;1.05;0.50;;;;;;;;;;4610634;27;20084;-64
2023/02/02 01:06:16;;;;;;;1.00;0.50;;;;;;;;;;4612341;27;20104;-63
2023/02/02 01:08:26;;;;;;;1.60;0.60;;;;;;;;;;4609714;27;20347;-64
2023/02/02 01:10:37;;;;;;;1.33;0.47;;;;;;;;;;4610972;27;20419;-64
2023/02/02 01:12:47;;;;;;;0.90;0.40;;;;;;;;;;4612599;27;20108;-63
2023/02/02 01:14:57;;;;;;;0.77;0.40;;;;;;;;;;4613257;27;20101;-64
2023/02/02 01:17:08;;;;;;;1.05;0.40;;;;;;;;;;4611964;27;20043;-64
2023/02/02 01:19:18;;;;;;;0.60;0.40;;;;;;;;;;4610521;27;20112;-64
2023/02/02 01:21:28;;;;;;;0.90;0.57;;;;;;;;;;4610839;27;20504;-64
2023/02/02 01:23:39;;;;;;;0.88;0.50;;;;;;;;;;4611636;27;20031;-64
2023/02/02 01:25:53;;;;;;;1.00;0.52;;;;;;;;;;4609748;27;20039;-64
2023/02/02 01:28:04;;;;;;;0.88;0.30;;;;;;;;;;4610117;27;20109;-64
2023/02/02 01:30:14;;;;;;;0.45;0.40;;;;;;;;;;4611243;27;20069;-64
2023/02/02 01:32:24;;;;;;;1.20;0.38;;;;;;;;;;4611478;27;20563;-64
2023/02/02 01:34:35;;;;;;;0.40;0.40;;;;;;;;;;4611985;27;20118;-64
2023/02/02 01:36:45;;;;;;;1.05;0.40;;;;;;;;;;4613192;27;20103;-64
2023/02/02 01:38:56;;;;;;;0.95;0.50;;;;;;;;;;4613678;27;20035;-64
2023/02/02 01:41:11;;;;;;;1.25;0.43;;;;;;;;;;4616224;27;20043;-63
2023/02/02 01:43:22;;;;;;;0.63;0.40;;;;;;;;;;4613977;27;20043;-64
2023/02/02 01:45:33;;;;;;;0.98;0.47;;;;;;;;;;4613531;27;20035;-64
2023/02/02 01:47:48;;;;;;;0.30;0.30;;;;;;;;;;4615174;27;20039;-63
2023/02/02 01:49:58;;;;;;;0.40;0.30;;;;;;;;;;4602708;27;20676;-64
2023/02/02 01:52:09;;;;;;;0.52;0.40;;;;;;;;;;4613871;27;20033;-64
2023/02/02 01:54:21;;;;;;;0.77;0.40;;;;;;;;;;4613521;27;20058;-63
2023/02/02 01:56:36;;;;;;;0.82;0.30;;;;;;;;;;4615874;27;20034;-64
2023/02/02 01:58:46;;;;;;;0.32;0.30;;;;;;;;;;4629741;27;20027;-64
2023/02/02 02:00:56;;;;;;;1.02;0.30;;;;;;;;;;4612516;27;20607;-63
2023/02/02 02:03:11;;;;;;;0.80;0.35;;;;;;;;;;4614899;27;20122;-64
2023/02/02 02:05:25;;;;;;;0.40;0.30;;;;;;;;;;4614096;27;20134;-64
2023/02/02 02:07:36;;;;;;;0.77;0.40;;;;;;;;;;4610802;27;20141;-64
2023/02/02 02:09:46;;;;;;;0.88;0.40;;;;;;;;;;4615073;27;20028;-63
2023/02/02 02:11:57;;;;;;;0.90;0.50;;;;;;;;;;4596426;27;20066;-65
2023/02/02 02:16:44;;;;;;;0.57;0.30;;;;;;;;;;4629372;27;20035;-65
2023/02/02 02:19:03;;;;;;;0.77;0.50;;;;;;;;;;4612957;27;20027;-64
2023/02/02 02:26:32;;;;;;;0.60;0.40;;;;;;;;;;4614550;27;20852;-64
2023/02/02 02:29:02;;;;;;;0.70;0.30;;;;;;;;;;4613722;27;20035;-64
2023/02/02 02:31:25;;;;;;;0.73;0.50;;;;;;;;;;4614248;27;20766;-64
2023/02/02 02:34:02;;;;;;;0.38;0.30;;;;;;;;;;4603117;27;20032;-64
2023/02/02 02:36:18;;;;;;;0.98;0.30;;;;;;;;;;4613149;27;20060;-64
2023/02/02 02:38:36;;;;;;;0.47;0.30;;;;;;;;;;4614341;27;20523;-64
2023/02/02 02:40:53;;;;;;;0.65;0.38;;;;;;;;;;4611446;27;21232;-64
2023/02/02 02:43:11;;;;;;;0.43;0.20;;;;;;;;;;4613109;27;20043;-64
2023/02/02 02:45:23;;;;;;;0.98;0.50;;;;;;;;;;4616918;27;20078;-64
2023/02/02 02:47:34;;;;;;;0.50;0.40;;;;;;;;;;4610759;27;20039;-64
2023/02/02 02:49:46;;;;;;;0.80;0.50;;;;;;;;;;4611664;27;20035;-64
2023/02/02 02:51:56;;;;;;;0.88;0.43;;;;;;;;;;4614188;27;20027;-63
2023/02/02 02:54:14;;;;;;;0.85;0.50;;;;;;;;;;4612068;27;20598;-64
2023/02/02 02:56:30;;;;;;;1.20;0.50;;;;;;;;;;4610607;27;20034;-64
2023/02/02 02:58:40;;;;;;;0.70;0.40;;;;;;;;;;4614469;27;20038;-64
2023/02/02 03:01:09;;;;;;;0.60;0.40;;;;;;;;;;4613643;27;20050;-63
2023/02/02 03:03:26;;;;;;;0.98;0.43;;;;;;;;;;4614439;27;20550;-64
2023/02/02 03:05:46;;;;;;;0.40;0.40;;;;;;;;;;4614467;27;20031;-64
2023/02/02 03:08:10;;;;;;;0.63;0.40;;;;;;;;;;4612303;27;20030;-64
2023/02/02 03:10:23;;;;;;;0.65;0.50;;;;;;;;;;4611863;27;20034;-64
2023/02/02 03:12:41;;;;;;;1.25;0.70;;;;;;;;;;4612915;27;20626;-63
2023/02/02 03:14:52;;;;;;;1.02;0.43;;;;;;;;;;4614256;27;20034;-63
2023/02/02 03:17:02;;;;;;;0.90;0.50;;;;;;;;;;4612878;27;20042;-63
2023/02/02 03:19:12;;;;;;;0.47;0.40;;;;;;;;;;4616785;27;20030;-64
2023/02/02 03:21:23;;;;;;;1.05;0.50;;;;;;;;;;4615676;27;20073;-64
2023/02/02 03:23:33;;;;;;;1.52;0.60;;;;;;;;;;4612027;27;20046;-64
2023/02/02 03:25:44;;;;;;;1.13;0.60;;;;;;;;;;4614432;27;20039;-64
2023/02/02 03:27:54;;;;;;;1.20;0.60;;;;;;;;;;4613807;27;20095;-64
2023/02/02 03:30:06;;;;;;;1.20;0.63;;;;;;;;;;4612628;27;20038;-63
2023/02/02 03:32:17;;;;;;;0.93;0.50;;;;;;;;;;4613930;27;20565;-63
2023/02/02 03:34:27;;;;;;;1.13;0.50;;;;;;;;;;4613818;27;20143;-64
2023/02/02 03:36:38;;;;;;;1.10;0.57;;;;;;;;;;4613848;27;20047;-64
2023/02/02 03:38:48;;;;;;;1.25;0.57;;;;;;;;;;4614208;27;20050;-64
2023/02/02 03:40:58;;;;;;;0.85;0.50;;;;;;;;;;4615615;27;20031;-64
2023/02/02 03:43:09;;;;;;;1.55;0.68;;;;;;;;;;4614423;27;20130;-64
2023/02/02 03:45:19;;;;;;;1.20;0.70;;;;;;;;;;4613067;27;20394;-64
2023/02/02 03:47:29;;;;;;;0.98;0.50;;;;;;;;;;4612595;27;20548;-63
2023/02/02 03:49:40;;;;;;;1.40;0.70;;;;;;;;;;4612585;27;20510;-64
2023/02/02 03:51:50;;;;;;;0.95;0.50;;;;;;;;;;4613199;27;20090;-64
2023/02/02 03:54:00;;;;;;;1.05;0.73;;;;;;;;;;4611340;27;20118;-63
2023/02/02 03:56:11;;;;;;;1.30;0.50;;;;;;;;;;4613550;27;20047;-64
2023/02/02 03:58:21;;;;;;;1.27;0.70;;;;;;;;;;4596893;27;20032;-64
2023/02/02 04:00:31;;;;;;;1.55;0.63;;;;;;;;;;4616744;27;20130;-63
2023/02/02 04:02:41;;;;;;;1.10;0.50;;;;;;;;;;4613189;27;20043;-63
2023/02/02 04:04:52;;;;;;;1.10;0.50;;;;;;;;;;4612954;27;20418;-64
2023/02/02 04:07:02;;;;;;;1.30;0.60;;;;;;;;;;4612764;27;20034;-64
2023/02/02 04:09:12;;;;;;;1.70;0.70;;;;;;;;;;4617504;27;20075;-63
2023/02/02 04:11:22;;;;;;;0.93;0.60;;;;;;;;;;4614465;27;20031;-64
2023/02/02 04:13:33;;;;;;;0.88;0.50;;;;;;;;;;4614413;27;20039;-63
2023/02/02 04:15:43;;;;;;;0.55;0.50;;;;;;;;;;4613998;27;20031;-63
2023/02/02 04:17:53;;;;;;;1.52;0.90;;;;;;;;;;4612094;27;20079;-64
2023/02/02 04:20:04;;;;;;;0.82;0.60;;;;;;;;;;4613674;27;20027;-64
2023/02/02 04:22:15;;;;;;;1.88;0.70;;;;;;;;;;4614006;27;20035;-63
2023/02/02 04:24:25;;;;;;;0.90;0.50;;;;;;;;;;4611732;27;20038;-64
2023/02/02 04:26:35;;;;;;;1.63;0.60;;;;;;;;;;4610775;27;20178;-64
2023/02/02 04:28:45;;;;;;;1.05;0.57;;;;;;;;;;4611215;27;20395;-66
2023/02/02 04:30:56;;;;;;;1.85;0.80;;;;;;;;;;4612101;27;20036;-64
2023/02/02 04:33:06;;;;;;;1.40;0.80;;;;;;;;;;4614386;27;21047;-63
2023/02/02 04:35:17;;;;;;;1.25;0.70;;;;;;;;;;4613010;27;20099;-64
2023/02/02 04:37:29;;;;;;;1.42;0.73;;;;;;;;;;4613325;27;20042;-64
2023/02/02 04:39:39;;;;;;;1.02;0.50;;;;;;;;;;4611604;27;20200;-64
2023/02/02 04:41:49;;;;;;;0.60;0.60;;;;;;;;;;4611340;27;20031;-64
2023/02/02 04:44:00;;;;;;;1.48;0.70;;;;;;;;;;4612315;27;20071;-64
2023/02/02 04:46:11;;;;;;;0.95;0.60;;;;;;;;;;4612206;27;20433;-63
2023/02/02 04:48:21;;;;;;;1.67;0.80;;;;;;;;;;4611580;27;20102;-64
2023/02/02 04:50:31;;;;;;;1.70;0.70;;;;;;;;;;4611470;27;20039;-64
2023/02/02 04:52:41;;;;;;;1.85;0.88;;;;;;;;;;4612745;27;20097;-64
2023/02/02 04:54:52;;;;;;;1.95;0.80;;;;;;;;;;4611147;27;20114;-63
2023/02/02 04:57:02;;;;;;;1.55;1.00;;;;;;;;;;4611374;27;20035;-64
2023/02/02 04:59:12;;;;;;;1.80;1.10;;;;;;;;;;4611638;27;20130;-64
2023/02/02 05:01:23;;;;;;;1.92;1.05;;;;;;;;;;4614371;27;20038;-64
2023/02/02 05:03:33;;;;;;;1.52;1.00;;;;;;;;;;4612790;27;20043;-64
2023/02/02 05:05:43;;;;;;;2.25;1.10;;;;;;;;;;4611339;27;20039;-64
2023/02/02 05:07:54;;;;;;;2.22;1.23;;;;;;;;;;4610005;27;20079;-64
2023/02/02 05:10:04;;;;;;;1.48;1.00;;;;;;;;;;4612838;27;20040;-63
2023/02/02 05:12:14;;;;;;;1.73;1.10;;;;;;;;;;4612249;27;20051;-64
2023/02/02 05:14:25;;;;;;;1.85;1.30;;;;;;;;;;4614065;27;20042;-65
2023/02/02 05:16:35;;;;;;;1.52;0.90;;;;;;;;;;4613235;27;20046;-64
2023/02/02 05:18:53;;;;;;;1.48;0.80;;;;;;;;;;4613922;27;20145;-64
2023/02/02 05:21:03;;;;;;;1.38;0.80;;;;;;;;;;4615265;27;20648;-64
2023/02/02 05:23:13;;;;;;;1.33;0.95;;;;;;;;;;4614893;27;20043;-64
2023/02/02 05:25:24;;;;;;;1.38;0.70;;;;;;;;;;4613936;27;20038;-64
2023/02/02 05:27:34;;;;;;;1.63;0.90;;;;;;;;;;4614608;27;20931;-64
2023/02/02 05:29:46;;;;;;;0.70;0.70;;;;;;;;;;4617161;27;20031;-64
2023/02/02 05:31:56;;;;;;;1.17;0.60;;;;;;;;;;4617108;27;20035;-64
2023/02/02 05:34:10;;;;;;;1.13;0.77;;;;;;;;;;4614209;27;20481;-64
2023/02/02 05:36:20;;;;;;;1.05;0.70;;;;;;;;;;4611377;27;20038;-64
2023/02/02 05:38:30;;;;;;;1.27;0.60;;;;;;;;;;4614997;27;20503;-64
2023/02/02 05:40:41;;;;;;;1.05;0.77;;;;;;;;;;4615524;27;20039;-64
2023/02/02 05:42:51;;;;;;;1.05;0.70;;;;;;;;;;4615554;27;20164;-64
2023/02/02 05:45:01;;;;;;;1.30;0.60;;;;;;;;;;4614801;27;20116;-64
2023/02/02 05:47:12;;;;;;;0.82;0.50;;;;;;;;;;4615564;27;20047;-64
2023/02/02 05:49:22;;;;;;;1.02;0.60;;;;;;;;;;4614403;27;20126;-64
2023/02/02 05:51:40;;;;;;;0.80;0.50;;;;;;;;;;4615204;27;20027;-64
2023/02/02 05:53:51;;;;;;;0.73;0.55;;;;;;;;;;4616705;27;20049;-64
2023/02/02 05:56:01;;;;;;;1.20;0.60;;;;;;;;;;4616414;27;20039;-64
2023/02/02 05:58:11;;;;;;;1.05;0.50;;;;;;;;;;4613987;27;20121;-65
2023/02/02 06:00:22;;;;;;;1.40;0.50;;;;;;;;;;4614319;27;20043;-64
2023/02/02 06:02:32;;;;;;;1.45;0.60;;;;;;;;;;4614440;27;20092;-64
2023/02/02 06:04:42;;;;;;;0.82;0.50;;;;;;;;;;4614742;27;20088;-64
2023/02/02 06:06:53;;;;;;;1.25;0.60;;;;;;;;;;4615482;27;20498;-64
2023/02/02 06:09:04;;;;;;;0.98;0.50;;;;;;;;;;4615103;27;20464;-64
2023/02/02 06:11:16;;;;;;;1.33;0.57;;;;;;;;;;4614546;27;20047;-64
2023/02/02 06:13:26;;;;;;;0.85;0.60;;;;;;;;;;4613575;27;20027;-64
2023/02/02 06:15:36;;;;;;;0.98;0.60;;;;;;;;;;4614877;27;20392;-63
2023/02/02 06:17:47;;;;;;;1.15;0.70;;;;;;;;;;4615300;27;20030;-64
2023/02/02 06:19:57;;;;;;;1.20;0.65;;;;;;;;;;4612049;27;20140;-64
2023/02/02 06:22:08;;;;;;;0.80;0.57;;;;;;;;;;4613871;27;20062;-64
2023/02/02 06:24:18;;;;;;;0.80;0.60;;;;;;;;;;4615972;27;20039;-64
2023/02/02 06:26:28;;;;;;;1.20;0.55;;;;;;;;;;4616616;27;20483;-64
2023/02/02 06:28:39;;;;;;;0.60;0.40;;;;;;;;;;4616330;27;20354;-64
2023/02/02 06:30:49;;;;;;;0.85;0.47;;;;;;;;;;4613634;27;20088;-64
2023/02/02 06:33:00;;;;;;;1.42;0.55;;;;;;;;;;4614647;27;20031;-64
2023/02/02 06:35:10;;;;;;;0.45;0.32;;;;;;;;;;4614899;27;20039;-64
2023/02/02 06:37:20;;;;;;;0.30;0.30;;;;;;;;;;4614862;27;20319;-64
2023/02/02 06:39:31;;;;;;;0.60;0.40;;;;;;;;;;4614333;27;20038;-64
2023/02/02 06:41:43;;;;;;;0.73;0.40;;;;;;;;;;4613280;27;20035;-64
2023/02/02 06:43:53;;;;;;;0.85;0.40;;;;;;;;;;4614917;27;20032;-64
2023/02/02 06:46:04;;;;;;;0.82;0.40;;;;;;;;;;4614432;27;20039;-62
2023/02/02 06:48:14;;;;;;;0.40;0.30;;;;;;;;;;4612152;27;20062;-64
2023/02/02 06:50:24;;;;;;;0.65;0.35;;;;;;;;;;4603104;27;20027;-63
2023/02/02 06:52:35;;;;;;;0.45;0.20;;;;;;;;;;4615176;27;20046;-63
2023/02/02 06:54:45;;;;;;;0.30;0.30;;;;;;;;;;4613648;27;20462;-64
2023/02/02 06:56:55;;;;;;;0.47;0.47;;;;;;;;;;4613863;27;20129;-64
2023/02/02 06:59:06;;;;;;;0.73;0.30;;;;;;;;;;4614319;27;20458;-64
2023/02/02 07:01:16;;;;;;;0.52;0.50;;;;;;;;;;4615142;27;20023;-64
2023/02/02 07:03:26;;;;;;;0.43;0.32;;;;;;;;;;4615391;27;20035;-63
2023/02/02 07:05:38;;;;;;;1.10;0.47;;;;;;;;;;4612007;27;20035;-64
2023/02/02 07:07:49;;;;;;;0.70;0.40;;;;;;;;;;4616477;27;20041;-64
2023/02/02 07:09:59;;;;;;;0.60;0.40;;;;;;;;;;4614118;27;20060;-64
2023/02/02 07:12:09;;;;;;;0.70;0.30;;;;;;;;;;4613815;27;20100;-65
2023/02/02 07:14:20;;;;;;;0.70;0.40;;;;;;;;;;4614519;27;20143;-65
2023/02/02 07:16:30;;;;;;;0.98;0.60;;;;;;;;;;4612412;27;20054;-65
2023/02/02 07:18:43;;;;;;;0.60;0.40;;;;;;;;;;4612053;27;20434;-65
2023/02/02 07:20:56;;;;;;;0.50;0.43;;;;;;;;;;4613321;27;20038;-65
2023/02/02 07:23:07;;;;;;;0.50;0.40;;;;;;;;;;4612624;27;20039;-66
2023/02/02 07:25:17;;;;;;;0.73;0.40;;;;;;;;;;4612658;27;20543;-65
2023/02/02 07:27:27;;;;;;;0.35;0.32;;;;;;;;;;4614038;27;20084;-65
2023/02/02 07:29:38;;;;;;;0.85;0.40;;;;;;;;;;4613001;27;20335;-68
2023/02/02 07:31:48;;;;;;;1.00;0.47;;;;;;;;;;4613596;27;20054;-67
2023/02/02 07:33:58;;;;;;;0.95;0.50;;;;;;;;;;4612416;27;20038;-65
2023/02/02 07:36:10;;;;;;;0.40;0.40;;;;;;;;;;4612564;27;20039;-65
2023/02/02 07:38:20;;;;;;;0.80;0.40;;;;;;;;;;4610829;27;20039;-66
2023/02/02 07:40:31;;;;;;;1.10;0.40;;;;;;;;;;4596299;27;20043;-64
2023/02/02 07:42:41;;;;;;;0.47;0.40;;;;;;;;;;4613723;27;20153;-64
2023/02/02 07:44:51;;;;;;;1.00;0.43;;;;;;;;;;4612738;27;20046;-64
2023/02/02 07:47:02;;;;;;;0.82;0.43;;;;;;;;;;4613897;27;20043;-65
2023/02/02 07:49:13;;;;;;;0.30;0.30;;;;;;;;;;4613452;27;20241;-65
2023/02/02 07:51:24;;;;;;;1.38;0.43;;;;;;;;;;4612867;27;20212;-68
2023/02/02 07:53:34;;;;;;;0.45;0.30;;;;;;;;;;4598871;27;20437;-65
2023/02/02 07:55:44;;;;;;;0.70;0.32;;;;;;;;;;4613484;27;20402;-65
2023/02/02 07:57:57;;;;;;;0.32;0.30;;;;;;;;;;4613036;27;20035;-66
2023/02/02 08:00:08;;;;;;;0.70;0.40;;;;;;;;;;4613349;27;20043;-64
2023/02/02 08:02:22;;;;;;;0.47;0.30;;;;;;;;;;4613017;27;20050;-64
2023/02/02 08:04:33;;;;;;;0.63;0.30;;;;;;;;;;4613089;27;20506;-66
2023/02/02 08:06:43;;;;;;;0.43;0.40;;;;;;;;;;4613709;27;20041;-64
2023/02/02 08:08:53;;;;;;;0.90;0.28;;;;;;;;;;4612830;27;20137;-65
2023/02/02 08:11:06;;;;;;;0.80;0.40;;;;;;;;;;4612078;27;20088;-64
2023/02/02 08:13:16;;;;;;;0.80;0.40;;;;;;;;;;4612108;27;20027;-64
2023/02/02 08:15:27;;;;;;;0.52;0.40;;;;;;;;;;4611162;27;20403;-65
2023/02/02 08:17:37;;;;;;;0.85;0.40;;;;;;;;;;4611713;27;20035;-66
2023/02/02 08:19:48;;;;;;;0.38;0.28;;;;;;;;;;4612685;27;20054;-65
2023/02/02 08:21:58;;;;;;;0.60;0.32;;;;;;;;;;4610195;27;20518;-65
2023/02/02 08:24:08;;;;;;;0.60;0.38;;;;;;;;;;4615793;27;20122;-65
2023/02/02 08:26:21;;;;;;;0.50;0.30;;;;;;;;;;4611113;27;20031;-65
2023/02/02 08:28:31;;;;;;;0.50;0.38;;;;;;;;;;4613603;27;20695;-65
2023/02/02 08:30:41;;;;;;;0.98;0.63;;;;;;;;;;4609973;27;20080;-65
2023/02/02 08:32:51;;;;;;;0.50;0.40;;;;;;;;;;4612202;27;20066;-65
2023/02/02 08:35:02;;;;;;;0.60;0.45;;;;;;;;;;4611052;27;20039;-65
2023/02/02 08:37:12;;;;;;;1.85;0.55;;;;;;;;;;4611525;27;20039;-65
2023/02/02 08:39:23;;;;;;;0.40;0.40;;;;;;;;;;4611769;27;20140;-65
2023/02/02 08:41:35;;;;;;;0.70;0.43;;;;;;;;;;4613091;27;20039;-65
2023/02/02 08:43:45;;;;;;;0.38;0.38;;;;;;;;;;4610759;27;20034;-65
2023/02/02 08:45:56;;;;;;;0.73;0.40;;;;;;;;;;4612872;27;20042;-65
2023/02/02 08:48:06;;;;;;;0.80;0.38;;;;;;;;;;4612482;27;20039;-65
2023/02/02 08:50:17;;;;;;;0.30;0.30;;;;;;;;;;4614287;27;20133;-65
2023/02/02 08:52:27;;;;;;;0.40;0.38;;;;;;;;;;4615433;27;20027;-65
2023/02/02 08:54:37;;;;;;;0.28;0.25;;;;;;;;;;4617013;27;20070;-64
2023/02/02 08:56:48;;;;;;;0.32;0.30;;;;;;;;;;4615851;27;20031;-64
2023/02/02 08:58:58;;;;;;;0.30;0.30;;;;;;;;;;4616342;27;20054;-65
2023/02/02 09:01:13;;;;;;;0.47;0.30;;;;;;;;;;4618518;27;20036;-65
2023/02/02 09:03:23;;;;;;;0.60;0.38;;;;;;;;;;4615797;27;20230;-65
2023/02/02 09:05:34;;;;;;;0.95;0.47;;;;;;;;;;4614892;27;20171;-65
2023/02/02 09:07:45;;;;;;;0.40;0.30;;;;;;;;;;4615267;27;20446;-65
2023/02/02 09:09:57;;;;;;;0.40;0.30;;;;;;;;;;4616386;27;20122;-65
2023/02/02 09:12:07;;;;;;;0.30;0.30;;;;;;;;;;4613917;27;20140;-64
2023/02/02 09:14:17;;;;;;;0.40;0.30;;;;;;;;;;4615406;27;20041;-65
2023/02/02 09:16:28;;;;;;;0.40;0.30;;;;;;;;;;4613898;27;20039;-66
2023/02/02 09:18:39;;;;;;;0.70;0.40;;;;;;;;;;4613626;27;20496;-62
2023/02/02 09:20:49;;;;;;;0.40;0.30;;;;;;;;;;4614622;27;20039;-66
2023/02/02 09:22:59;;;;;;;0.30;0.30;;;;;;;;;;4613801;27;20043;-66
2023/02/02 09:25:10;;;;;;;0.50;0.30;;;;;;;;;;4615658;27;20027;-66
2023/02/02 09:27:20;;;;;;;0.40;0.30;;;;;;;;;;4615251;27;20035;-70
2023/02/02 09:29:30;;;;;;;0.30;0.30;;;;;;;;;;4613771;27;20034;-63
2023/02/02 09:31:40;;;;;;;1.65;0.40;;;;;;;;;;4613527;27;20035;-64
2023/02/02 09:33:51;;;;;;;0.57;0.30;;;;;;;;;;4613656;27;20524;-64
2023/02/02 09:36:21;;;;;;;0.52;0.30;;;;;;;;;;4613108;27;20126;-64
2023/02/02 09:38:32;;;;;;;0.30;0.30;;;;;;;;;;4613731;27;20027;-66
2023/02/02 09:40:42;;;;;;;0.55;0.40;;;;;;;;;;4614746;27;20057;-65
2023/02/02 09:43:00;;;;;;;0.73;0.40;;;;;;;;;;4610615;27;20569;-66
2023/02/02 09:45:14;;;;;;;0.63;0.30;;;;;;;;;;4615353;27;20636;-66
2023/02/02 09:47:33;;;;;;;0.40;0.38;;;;;;;;;;4615690;27;20035;-66
2023/02/02 09:49:46;;;;;;;0.73;0.40;;;;;;;;;;4614961;27;20031;-68
2023/02/02 09:52:00;;;;;;;0.60;0.60;;;;;;;;;;4614323;27;20035;-68
2023/02/02 09:54:11;;;;;;;1.25;0.80;;;;;;;;;;4601438;27;20042;-63
2023/02/02 09:56:42;;;;;;;0.63;0.63;;;;;;;;;;4612685;27;20046;-62
2023/02/02 09:58:53;;;;;;;0.55;0.40;;;;;;;;;;4611994;27;20141;-63
2023/02/02 10:01:03;;;;;;;0.40;0.40;;;;;;;;;;4612605;27;20035;-64
2023/02/02 10:03:29;;;;;;;0.85;0.60;;;;;;;;;;4613490;27;20447;-63
2023/02/02 10:05:46;;;;;;;1.70;1.60;;;;;;;;;;4613024;27;20023;-62
2023/02/02 10:08:00;;;;;;;2.30;2.10;;;;;;;;;;4612962;27;21212;-61
2023/02/02 10:10:11;;;;;;;1.33;0.90;;;;;;;;;;4615235;27;20036;-67
2023/02/02 10:12:40;;;;;;;0.55;0.40;;;;;;;;;;4615076;27;20294;-66
2023/02/02 10:15:11;;;;;;;0.40;0.38;;;;;;;;;;4613705;27;20023;-62
2023/02/02 10:17:44;;;;;;;0.40;0.40;;;;;;;;;;4614000;27;20043;-62
2023/02/02 10:19:59;;;;;;;0.73;0.30;;;;;;;;;;4613331;27;20101;-63
2023/02/02 10:22:09;;;;;;;0.40;0.40;;;;;;;;;;4611189;27;20046;-62
2023/02/02 10:24:25;;;;;;;1.25;0.50;;;;;;;;;;4614031;27;20609;-63
2023/02/02 10:26:37;;;;;;;1.10;1.00;;;;;;;;;;4612719;27;20089;-62
2023/02/02 10:28:50;;;;;;;0.50;0.50;;;;;;;;;;4614304;27;20027;-63
2023/02/02 10:31:01;;;;;;;0.50;0.38;;;;;;;;;;4612624;27;20039;-64
2023/02/02 10:33:19;;;;;;;0.73;0.50;;;;;;;;;;4613682;27;20023;-61
2023/02/02 10:35:42;;;;;;;0.57;0.50;;;;;;;;;;4612115;27;20048;-63
2023/02/02 10:37:59;;;;;;;0.40;0.40;;;;;;;;;;4612125;27;20044;-64
2023/02/02 10:40:10;;;;;;;;;;;;;;;;;;4612531;27;20118;-60
2023/02/02 10:42:26;;;;;;;0.60;0.50;;;;;;;;;;4613106;27;20375;-64
2023/02/02 10:44:43;;;;;;;0.40;0.40;;;;;;;;;;4613433;27;20134;-66
2023/02/02 10:46:54;;;;;;;0.50;0.40;;;;;;;;;;4613209;27;20761;-66
2023/02/02 10:49:24;;;;;;;0.60;0.45;;;;;;;;;;4600735;27;20142;-64
2023/02/02 10:51:34;;;;;;;0.30;0.30;;;;;;;;;;4612278;27;20552;-68
2023/02/02 10:53:49;;;;;;;0.43;0.38;;;;;;;;;;4614388;27;20027;-65
2023/02/02 10:56:05;;;;;;;0.28;0.28;;;;;;;;;;4612041;27;20036;-66
2023/02/02 10:58:19;;;;;;;0.47;0.40;;;;;;;;;;4612620;27;20035;-66
2023/02/02 11:00:47;;;;;;;0.70;0.60;;;;;;;;;;4612264;27;20047;-66
2023/02/02 11:02:59;;;;;;;1.00;0.90;;;;;;;;;;4613340;27;20035;-65
2023/02/02 11:07:53;;;;;;;0.38;0.38;;;;;;;;;;4612890;27;20054;-65
2023/02/02 11:10:03;;;;;;;0.98;0.70;;;;;;;;;;4613702;27;20039;-65
2023/02/02 11:12:34;;;;;;;0.77;0.50;;;;;;;;;;4611042;27;20035;-68
2023/02/02 11:14:50;;;;;;;1.52;1.23;;;;;;;;;;4610295;27;20036;-63
2023/02/02 11:17:05;;;;;;;2.70;2.00;;;;;;;;;;4611146;27;20038;-63
2023/02/02 11:19:15;;;;;;;1.05;0.90;;;;;;;;;;4610198;27;20031;-63
2023/02/02 11:21:30;;;;;;;0.75;0.50;;;;;;;;;;4613356;27;20027;-63
2023/02/02 11:23:49;;;;;;;0.73;0.70;;;;;;;;;;4612842;27;20081;-64
2023/02/02 11:26:00;;;;;;;0.90;0.80;;;;;;;;;;4600946;27;20066;-62
2023/02/02 11:28:22;;;;;;;0.50;0.50;;;;;;;;;;4614110;27;20138;-64
2023/02/02 11:30:34;;;;;;;0.47;0.47;;;;;;;;;;4612439;27;20098;-60
2023/02/02 11:32:46;;;;;;;1.20;0.40;;;;;;;;;;4600831;27;20050;-61
2023/02/02 11:35:03;;;;;;;0.80;0.43;;;;;;;;;;4614058;27;20487;-61
2023/02/02 11:37:18;;;;;;;0.60;0.60;;;;;;;;;;4612655;27;20034;-63
2023/02/02 11:39:29;;;;;;;2.10;1.90;;;;;;;;;;4612839;27;20637;-61
2023/02/02 11:41:40;;;;;;;0.90;0.45;;;;;;;;;;4612822;27;20035;-61
2023/02/02 11:43:52;;;;;;;0.40;0.40;;;;;;;;;;4613357;27;20097;-60
2023/02/02 11:46:05;;;;;;;0.30;0.30;;;;;;;;;;4613787;27;20034;-59
2023/02/02 11:48:20;;;;;;;0.60;0.47;;;;;;;;;;4613614;27;20027;-60
2023/02/02 11:50:30;;;;;;;0.47;0.45;;;;;;;;;;4600962;27;20549;-60
2023/02/02 11:52:44;;;;;;;0.40;0.40;;;;;;;;;;4614828;27;20096;-60
2023/02/02 11:54:56;;;;;;;0.90;0.90;;;;;;;;;;4611279;27;20037;-61
2023/02/02 11:57:07;;;;;;;0.40;0.40;;;;;;;;;;4611384;27;20054;-60
2023/02/02 11:59:37;;;;;;;1.00;0.40;;;;;;;;;;4613332;27;20015;-61
2023/02/02 12:01:48;;;;;;;0.73;0.50;;;;;;;;;;4611706;27;20043;-61
2023/02/02 12:04:00;;;;;;;0.40;0.40;;;;;;;;;;4614522;27;20035;-61
2023/02/02 12:06:21;;;;;;;0.52;0.40;;;;;;;;;;4611900;27;20042;-62
2023/02/02 12:08:31;;;;;;;0.40;0.40;;;;;;;;;;4611062;27;20545;-61
2023/02/02 12:10:52;;;;;;;0.60;0.40;;;;;;;;;;4611401;27;20802;-61
2023/02/02 12:13:14;;;;;;;0.40;0.40;;;;;;;;;;4612511;27;20066;-60
2023/02/02 12:15:41;;;;;;;0.55;0.40;;;;;;;;;;4610907;27;20044;-60
2023/02/02 12:17:56;;;;;;;0.53;0.40;;;;;;;;;;4612525;27;20071;-62
2023/02/02 12:20:13;;;;;;;1.15;0.70;;;;;;;;;;4611799;27;20030;-61
2023/02/02 12:22:23;;;;;;;;;;;;;;;;;;4600298;27;20039;-61
2023/02/02 12:24:36;;;;;;;0.82;0.82;;;;;;;;;;4612315;27;19915;-61
2023/02/02 12:27:00;;;;;;;0.95;0.60;;;;;;;;;;4613659;27;20607;-61
2023/02/02 12:29:14;;;;;;;0.55;0.55;;;;;;;;;;4611371;27;20041;-61
2023/02/02 12:31:27;;;;;;;0.35;0.35;;;;;;;;;;4610710;27;20019;-61
2023/02/02 12:33:43;;;;;;;0.90;0.50;;;;;;;;;;4610437;27;20050;-62
2023/02/02 12:36:09;;;;;;;0.50;0.50;;;;;;;;;;4611707;27;20035;-61
2023/02/02 12:38:47;;;;;;;3.42;2.83;;;;;;;;;;4611130;27;20569;-60
2023/02/02 12:41:00;;;;;;;2.22;2.03;;;;;;;;;;4611357;27;20078;-61
2023/02/02 12:43:32;;;;;;;0.75;0.65;;;;;;;;;;4612208;27;20608;-61
2023/02/02 12:45:45;;;;;;;0.50;0.50;;;;;;;;;;4612297;27;20035;-61
2023/02/02 12:48:04;;;;;;;0.40;0.40;;;;;;;;;;4612497;27;21188;-61
2023/02/02 12:50:19;;;;;;;0.85;0.50;;;;;;;;;;4612632;27;20062;-60
2023/02/02 12:52:30;;;;;;;0.68;0.50;;;;;;;;;;4611265;27;20305;-61
2023/02/02 12:54:43;;;;;;;0.82;0.73;;;;;;;;;;4611854;27;20035;-61
2023/02/02 12:57:17;;;;;;;0.88;0.88;;;;;;;;;;4611302;27;20034;-62
2023/02/02 13:00:00;;;;;;;0.55;0.50;;;;;;;;;;4611582;27;20039;-61
2023/02/02 13:02:29;;;;;;;0.88;0.55;;;;;;;;;;4587274;27;20593;-61
2023/02/02 13:04:39;;;;;;;0.50;0.50;;;;;;;;;;4612698;27;20082;-60
2023/02/02 13:06:49;;;;;;;0.60;0.60;;;;;;;;;;4611672;27;20483;-61
2023/02/02 13:09:14;;;;;;;0.50;0.50;;;;;;;;;;4611362;27;20694;-60
2023/02/02 13:11:48;;;;;;;0.63;0.47;;;;;;;;;;4610677;27;20031;-61
2023/02/02 13:14:01;;;;;;;0.50;0.50;;;;;;;;;;4610877;27;20039;-61
2023/02/02 13:16:13;;;;;;;0.85;0.60;;;;;;;;;;4611190;27;20067;-61
2023/02/02 13:18:33;;;;;;;0.50;0.50;;;;;;;;;;4611495;27;20612;-60
2023/02/02 13:20:48;;;;;;;0.30;0.30;;;;;;;;;;4609611;27;20028;-61
2023/02/02 13:23:01;;;;;;;0.52;0.52;;;;;;;;;;4611043;27;20572;-61
2023/02/02 13:25:21;;;;;;;0.47;0.47;;;;;;;;;;4609701;27;20037;-60
2023/02/02 13:27:31;;;;;;;0.55;0.47;;;;;;;;;;4610309;27;20076;-61
2023/02/02 13:29:45;;;;;;;0.80;0.70;;;;;;;;;;4609894;27;20046;-61